Bishop International Airport
KFNT : now visible

Airfield :











YOU CAN JOIN US ON...

 
LOGIN :

Register | Disclaimer

   EN    FR    IT 

 









Legend :    VFR   Marginal VFR   IFR   Intensive IFR   Very Intensive IFR
Visi :
Ceiling :
>= 8 km
>= 3000ft
5 to 8 km
1000 to 3000 ft
1500m to 5 km
500 to 1000 ft
800 to 1500m
200 to 500 ft
< 800m
< 200 ft
Symbols :   Thunderstorms  Fog  Heavy snow  Heavy precipitations  Wind > 20 kt






- Airport Elevation : 782 ft
- IATA code : FNT


KFNT - Bishop International

CURRENT METAR :
  • 080953Z 35003KT 8SM BKN014 11/08 A2967 RMK AO2 SLP045 T01060078

EXPIRED METARs :
  • 080853Z AUTO 35006KT 8SM OVC011 12/09 A2966 RMK AO2 CIG 007V013 SLP044 T01170089 53009
  • 080822Z AUTO 34006KT 8SM BKN010 OVC018 12/09 A2966 RMK AO2 CIG 007V013 T01170089
  • 080753Z AUTO 36010G16KT 10SM FEW007 OVC019 12/08 A2964 RMK AO2 SLP037 T01170083
  • 080749Z AUTO 35008KT 10SM FEW007 OVC020 11/08 A2964 RMK AO2

TAF KFNT
Valid from the 08 at 10:00 until the 09 at 06:00 UTC


080930Z 0810/0906 32008KT P6SM OVC012
FM081300 30008KT P6SM SKC
FM081800 26010KT P6SM SCT045 SCT150
FM090100 32006KT P6SM OVC120



MET'MAP, your aeronautical weather chart ! - Copyright ORBIFLY December 2007 - Disclaimer

ORBIFLY MET'MAP TEAM :

Programming & Development : Alexandra Zaïnal
Concept & original design : Baudouin d'Aumeries
Assistance for programming : Marc-Olivier Méhu
Technical & hardware support : Manuel Goepfert

Contact : metmap@orbifly.com




SOURCES & CREDITS :

   NOAA       Earth
Advisory